sensor_id;sensor_type;location;lat;lon;timestamp;temperature;humidity
16267;DHT22;8241;48.786;9.250;2023-02-03T00:00:48;7.30;99.90
16267;DHT22;8241;48.786;9.250;2023-02-03T00:03:19;7.20;99.90
16267;DHT22;8241;48.786;9.250;2023-02-03T00:05:49;7.30;99.90
16267;DHT22;8241;48.786;9.250;2023-02-03T00:08:18;7.40;99.90
16267;DHT22;8241;48.786;9.250;2023-02-03T00:10:45;7.30;99.90
16267;DHT22;8241;48.786;9.250;2023-02-03T00:13:32;7.30;99.90
16267;DHT22;8241;48.786;9.250;2023-02-03T00:19:15;7.20;99.90
16267;DHT22;8241;48.786;9.250;2023-02-03T00:21:42;7.30;99.90
16267;DHT22;8241;48.786;9.250;2023-02-03T00:24:22;7.20;99.90
16267;DHT22;8241;48.786;9.250;2023-02-03T00:26:51;7.20;99.90
16267;DHT22;8241;48.786;9.250;2023-02-03T00:29:21;7.20;99.90
16267;DHT22;8241;48.786;9.250;2023-02-03T00:35:17;7.10;99.90
16267;DHT22;8241;48.786;9.250;2023-02-03T00:37:54;7.20;99.90
16267;DHT22;8241;48.786;9.250;2023-02-03T00:40:33;7.20;99.90
16267;DHT22;8241;48.786;9.250;2023-02-03T00:43:16;7.20;99.90
16267;DHT22;8241;48.786;9.250;2023-02-03T00:45:47;7.20;99.90
16267;DHT22;8241;48.786;9.250;2023-02-03T00:48:24;7.20;99.90
16267;DHT22;8241;48.786;9.250;2023-02-03T00:51:02;7.20;99.90
16267;DHT22;8241;48.786;9.250;2023-02-03T00:53:42;7.10;99.90
16267;DHT22;8241;48.786;9.250;2023-02-03T00:56:18;7.10;99.90
16267;DHT22;8241;48.786;9.250;2023-02-03T00:59:04;7.20;99.90
16267;DHT22;8241;48.786;9.250;2023-02-03T01:01:52;7.10;99.90
16267;DHT22;8241;48.786;9.250;2023-02-03T01:04:44;7.10;99.90
16267;DHT22;8241;48.786;9.250;2023-02-03T01:07:33;7.10;99.90
16267;DHT22;8241;48.786;9.250;2023-02-03T01:11:51;7.10;99.90
16267;DHT22;8241;48.786;9.250;2023-02-03T01:18:06;7.20;99.90
16267;DHT22;8241;48.786;9.250;2023-02-03T01:28:55;7.00;99.90
16267;DHT22;8241;48.786;9.250;2023-02-03T01:31:24;6.90;99.90
16267;DHT22;8241;48.786;9.250;2023-02-03T01:52:45;7.00;99.90
16267;DHT22;8241;48.786;9.250;2023-02-03T01:55:49;7.00;99.90
16267;DHT22;8241;48.786;9.250;2023-02-03T02:14:11;7.00;99.90
16267;DHT22;8241;48.786;9.250;2023-02-03T02:31:44;7.10;99.90
16267;DHT22;8241;48.786;9.250;2023-02-03T02:35:06;7.10;99.90
16267;DHT22;8241;48.786;9.250;2023-02-03T02:38:34;7.00;99.90
16267;DHT22;8241;48.786;9.250;2023-02-03T02:41:17;7.10;99.90
16267;DHT22;8241;48.786;9.250;2023-02-03T02:50:58;7.10;99.90
16267;DHT22;8241;48.786;9.250;2023-02-03T02:57:02;7.10;99.90
16267;DHT22;8241;48.786;9.250;2023-02-03T03:03:20;7.10;99.90
16267;DHT22;8241;48.786;9.250;2023-02-03T03:05:54;7.10;99.90
16267;DHT22;8241;48.786;9.250;2023-02-03T03:08:40;7.10;99.90
16267;DHT22;8241;48.786;9.250;2023-02-03T03:11:19;7.10;99.90
16267;DHT22;8241;48.786;9.250;2023-02-03T03:14:19;7.20;99.90
16267;DHT22;8241;48.786;9.250;2023-02-03T03:17:24;7.10;99.90
16267;DHT22;8241;48.786;9.250;2023-02-03T03:20:21;7.00;99.90
16267;DHT22;8241;48.786;9.250;2023-02-03T03:24:21;7.10;99.90
16267;DHT22;8241;48.786;9.250;2023-02-03T03:26:45;7.10;99.90
16267;DHT22;8241;48.786;9.250;2023-02-03T03:32:51;7.00;99.90
16267;DHT22;8241;48.786;9.250;2023-02-03T03:35:27;6.90;99.90
16267;DHT22;8241;48.786;9.250;2023-02-03T03:38:17;7.00;99.90
16267;DHT22;8241;48.786;9.250;2023-02-03T03:52:03;6.80;99.90
16267;DHT22;8241;48.786;9.250;2023-02-03T04:05:53;6.90;99.90
16267;DHT22;8241;48.786;9.250;2023-02-03T04:20:12;6.70;99.90
16267;DHT22;8241;48.786;9.250;2023-02-03T04:52:16;6.30;99.90
16267;DHT22;8241;48.786;9.250;2023-02-03T04:55:50;6.30;99.90
16267;DHT22;8241;48.786;9.250;2023-02-03T05:02:35;6.20;99.90
16267;DHT22;8241;48.786;9.250;2023-02-03T05:05:16;6.20;99.90
16267;DHT22;8241;48.786;9.250;2023-02-03T05:08:50;6.20;99.90
16267;DHT22;8241;48.786;9.250;2023-02-03T05:18:45;6.10;99.90
16267;DHT22;8241;48.786;9.250;2023-02-03T05:19:16;6.10;99.90
16267;DHT22;8241;48.786;9.250;2023-02-03T05:35:39;6.20;99.90
16267;DHT22;8241;48.786;9.250;2023-02-03T05:41:30;6.10;99.90
16267;DHT22;8241;48.786;9.250;2023-02-03T05:44:15;6.20;99.90
16267;DHT22;8241;48.786;9.250;2023-02-03T05:46:42;6.30;99.90
16267;DHT22;8241;48.786;9.250;2023-02-03T05:49:09;6.30;99.90
16267;DHT22;8241;48.786;9.250;2023-02-03T05:51:58;6.30;99.90
16267;DHT22;8241;48.786;9.250;2023-02-03T05:54:27;6.30;99.90
16267;DHT22;8241;48.786;9.250;2023-02-03T05:56:55;6.30;99.90
16267;DHT22;8241;48.786;9.250;2023-02-03T05:59:28;6.30;99.90
16267;DHT22;8241;48.786;9.250;2023-02-03T06:01:55;6.30;99.90
16267;DHT22;8241;48.786;9.250;2023-02-03T06:04:40;6.30;99.90
16267;DHT22;8241;48.786;9.250;2023-02-03T06:07:10;6.30;99.90
16267;DHT22;8241;48.786;9.250;2023-02-03T06:10:08;6.30;99.90
16267;DHT22;8241;48.786;9.250;2023-02-03T06:12:38;6.30;99.90
16267;DHT22;8241;48.786;9.250;2023-02-03T06:15:05;6.30;99.90
16267;DHT22;8241;48.786;9.250;2023-02-03T06:17:34;6.20;99.90
16267;DHT22;8241;48.786;9.250;2023-02-03T06:20:12;6.20;99.90
16267;DHT22;8241;48.786;9.250;2023-02-03T06:22:40;6.20;99.90
16267;DHT22;8241;48.786;9.250;2023-02-03T06:25:08;6.20;99.90
16267;DHT22;8241;48.786;9.250;2023-02-03T06:27:38;6.30;99.90
16267;DHT22;8241;48.786;9.250;2023-02-03T06:30:14;6.30;99.90
16267;DHT22;8241;48.786;9.250;2023-02-03T06:32:47;6.30;99.90
16267;DHT22;8241;48.786;9.250;2023-02-03T06:35:18;6.40;99.90
16267;DHT22;8241;48.786;9.250;2023-02-03T06:37:57;6.40;99.90
16267;DHT22;8241;48.786;9.250;2023-02-03T06:40:32;6.40;99.90
16267;DHT22;8241;48.786;9.250;2023-02-03T06:43:08;6.40;99.90
16267;DHT22;8241;48.786;9.250;2023-02-03T06:45:53;6.40;99.90
16267;DHT22;8241;48.786;9.250;2023-02-03T06:48:39;6.30;99.90
16267;DHT22;8241;48.786;9.250;2023-02-03T06:51:08;6.40;99.90
16267;DHT22;8241;48.786;9.250;2023-02-03T06:53:34;6.30;99.90
16267;DHT22;8241;48.786;9.250;2023-02-03T06:56:02;6.30;99.90
16267;DHT22;8241;48.786;9.250;2023-02-03T06:58:48;6.30;99.90
16267;DHT22;8241;48.786;9.250;2023-02-03T07:01:14;6.20;99.90
16267;DHT22;8241;48.786;9.250;2023-02-03T07:03:41;6.20;99.90
16267;DHT22;8241;48.786;9.250;2023-02-03T07:06:08;6.20;99.90
16267;DHT22;8241;48.786;9.250;2023-02-03T07:08:35;6.10;99.90
16267;DHT22;8241;48.786;9.250;2023-02-03T07:11:03;6.20;99.90
16267;DHT22;8241;48.786;9.250;2023-02-03T07:13:32;6.20;99.90
16267;DHT22;8241;48.786;9.250;2023-02-03T07:16:06;6.20;99.90
16267;DHT22;8241;48.786;9.250;2023-02-03T07:18:41;6.10;99.90
16267;DHT22;8241;48.786;9.250;2023-02-03T07:21:12;6.10;99.90
16267;DHT22;8241;48.786;9.250;2023-02-03T07:23:40;6.10;99.90
16267;DHT22;8241;48.786;9.250;2023-02-03T07:26:09;6.00;99.90
16267;DHT22;8241;48.786;9.250;2023-02-03T07:28:51;6.10;99.90
16267;DHT22;8241;48.786;9.250;2023-02-03T07:31:42;6.00;99.90
16267;DHT22;8241;48.786;9.250;2023-02-03T07:34:09;6.10;99.90
16267;DHT22;8241;48.786;9.250;2023-02-03T07:36:44;6.10;99.90
16267;DHT22;8241;48.786;9.250;2023-02-03T07:39:20;6.10;99.90
16267;DHT22;8241;48.786;9.250;2023-02-03T07:41:47;6.00;99.90
16267;DHT22;8241;48.786;9.250;2023-02-03T07:44:16;6.10;99.90
16267;DHT22;8241;48.786;9.250;2023-02-03T07:46:44;6.00;99.90
16267;DHT22;8241;48.786;9.250;2023-02-03T07:49:12;6.10;99.90
16267;DHT22;8241;48.786;9.250;2023-02-03T07:51:45;6.10;99.90
16267;DHT22;8241;48.786;9.250;2023-02-03T07:54:12;6.10;99.90
16267;DHT22;8241;48.786;9.250;2023-02-03T07:56:41;6.00;99.90
16267;DHT22;8241;48.786;9.250;2023-02-03T07:59:37;6.10;99.90
16267;DHT22;8241;48.786;9.250;2023-02-03T08:02:05;6.10;99.90
16267;DHT22;8241;48.786;9.250;2023-02-03T08:04:49;6.10;99.90
16267;DHT22;8241;48.786;9.250;2023-02-03T08:07:33;6.10;99.90
16267;DHT22;8241;48.786;9.250;2023-02-03T08:10:33;6.20;99.90
16267;DHT22;8241;48.786;9.250;2023-02-03T08:13:20;6.20;99.90
16267;DHT22;8241;48.786;9.250;2023-02-03T08:15:56;6.20;99.90
16267;DHT22;8241;48.786;9.250;2023-02-03T08:18:25;6.30;99.90
16267;DHT22;8241;48.786;9.250;2023-02-03T08:20:51;6.40;99.90
16267;DHT22;8241;48.786;9.250;2023-02-03T08:23:18;6.30;99.90
16267;DHT22;8241;48.786;9.250;2023-02-03T08:25:49;6.40;99.90
16267;DHT22;8241;48.786;9.250;2023-02-03T08:28:20;6.30;99.90
16267;DHT22;8241;48.786;9.250;2023-02-03T08:30:50;6.30;99.90
16267;DHT22;8241;48.786;9.250;2023-02-03T08:33:17;6.40;99.90
16267;DHT22;8241;48.786;9.250;2023-02-03T08:35:47;6.30;99.90
16267;DHT22;8241;48.786;9.250;2023-02-03T08:38:26;6.30;99.90
16267;DHT22;8241;48.786;9.250;2023-02-03T08:41:07;6.30;99.90
16267;DHT22;8241;48.786;9.250;2023-02-03T08:43:34;6.20;99.90
16267;DHT22;8241;48.786;9.250;2023-02-03T08:46:12;6.20;99.90
16267;DHT22;8241;48.786;9.250;2023-02-03T08:48:39;6.20;99.90
16267;DHT22;8241;48.786;9.250;2023-02-03T08:51:15;6.20;99.90
16267;DHT22;8241;48.786;9.250;2023-02-03T08:53:42;6.30;99.90
16267;DHT22;8241;48.786;9.250;2023-02-03T08:56:14;6.30;99.90
16267;DHT22;8241;48.786;9.250;2023-02-03T08:58:43;6.30;99.90
16267;DHT22;8241;48.786;9.250;2023-02-03T09:01:37;6.30;99.90
16267;DHT22;8241;48.786;9.250;2023-02-03T09:07:26;6.30;99.90
16267;DHT22;8241;48.786;9.250;2023-02-03T09:14:09;6.40;99.90
16267;DHT22;8241;48.786;9.250;2023-02-03T09:17:08;6.40;99.90
16267;DHT22;8241;48.786;9.250;2023-02-03T09:20:15;6.50;99.90
16267;DHT22;8241;48.786;9.250;2023-02-03T09:22:58;6.50;99.90
16267;DHT22;8241;48.786;9.250;2023-02-03T09:25:42;6.60;99.90
16267;DHT22;8241;48.786;9.250;2023-02-03T09:28:41;6.60;99.90
16267;DHT22;8241;48.786;9.250;2023-02-03T09:31:26;6.70;99.90
16267;DHT22;8241;48.786;9.250;2023-02-03T09:34:15;6.80;99.90
16267;DHT22;8241;48.786;9.250;2023-02-03T09:36:58;6.90;99.90
16267;DHT22;8241;48.786;9.250;2023-02-03T09:39:35;7.00;99.90
16267;DHT22;8241;48.786;9.250;2023-02-03T09:46:22;7.10;99.90
16267;DHT22;8241;48.786;9.250;2023-02-03T09:49:10;7.00;99.90
16267;DHT22;8241;48.786;9.250;2023-02-03T09:51:55;7.00;99.90
16267;DHT22;8241;48.786;9.250;2023-02-03T09:58:03;6.90;99.90
16267;DHT22;8241;48.786;9.250;2023-02-03T10:04:43;6.90;99.90
16267;DHT22;8241;48.786;9.250;2023-02-03T10:07:18;7.00;99.90
16267;DHT22;8241;48.786;9.250;2023-02-03T10:10:20;7.10;99.90
16267;DHT22;8241;48.786;9.250;2023-02-03T10:33:58;7.30;99.90
16267;DHT22;8241;48.786;9.250;2023-02-03T10:39:44;7.50;99.90
16267;DHT22;8241;48.786;9.250;2023-02-03T10:42:22;7.60;99.90
16267;DHT22;8241;48.786;9.250;2023-02-03T10:45:02;7.70;99.90
16267;DHT22;8241;48.786;9.250;2023-02-03T10:47:33;7.70;99.90
16267;DHT22;8241;48.786;9.250;2023-02-03T10:53:31;8.00;99.90
16267;DHT22;8241;48.786;9.250;2023-02-03T10:56:06;8.00;99.90
16267;DHT22;8241;48.786;9.250;2023-02-03T10:58:59;8.00;99.90
16267;DHT22;8241;48.786;9.250;2023-02-03T11:09:02;8.80;99.90
16267;DHT22;8241;48.786;9.250;2023-02-03T11:19:21;8.50;99.90
16267;DHT22;8241;48.786;9.250;2023-02-03T11:22:01;8.50;99.90
16267;DHT22;8241;48.786;9.250;2023-02-03T11:28:31;8.40;99.90
16267;DHT22;8241;48.786;9.250;2023-02-03T11:35:27;8.20;99.90
16267;DHT22;8241;48.786;9.250;2023-02-03T11:38:32;8.20;99.90
16267;DHT22;8241;48.786;9.250;2023-02-03T11:49:03;8.20;99.90
16267;DHT22;8241;48.786;9.250;2023-02-03T12:44:44;8.10;99.90
16267;DHT22;8241;48.786;9.250;2023-02-03T12:50:29;8.20;99.90
16267;DHT22;8241;48.786;9.250;2023-02-03T12:53:13;8.30;99.90
16267;DHT22;8241;48.786;9.250;2023-02-03T12:55:43;8.40;99.90
16267;DHT22;8241;48.786;9.250;2023-02-03T12:58:31;8.50;99.90
16267;DHT22;8241;48.786;9.250;2023-02-03T13:04:30;8.50;99.90
16267;DHT22;8241;48.786;9.250;2023-02-03T13:10:32;8.50;99.90
16267;DHT22;8241;48.786;9.250;2023-02-03T13:13:01;8.50;99.90
16267;DHT22;8241;48.786;9.250;2023-02-03T13:15:42;8.50;99.90
16267;DHT22;8241;48.786;9.250;2023-02-03T13:18:33;8.50;99.90
16267;DHT22;8241;48.786;9.250;2023-02-03T13:21:04;8.50;99.90
16267;DHT22;8241;48.786;9.250;2023-02-03T13:24:00;8.60;99.90
16267;DHT22;8241;48.786;9.250;2023-02-03T13:37:47;8.60;99.90
16267;DHT22;8241;48.786;9.250;2023-02-03T13:40:38;8.60;99.90
16267;DHT22;8241;48.786;9.250;2023-02-03T13:43:28;8.70;99.90
16267;DHT22;8241;48.786;9.250;2023-02-03T13:46:03;8.70;99.90
16267;DHT22;8241;48.786;9.250;2023-02-03T13:48:36;8.70;99.90
16267;DHT22;8241;48.786;9.250;2023-02-03T13:55:28;8.70;99.90
16267;DHT22;8241;48.786;9.250;2023-02-03T14:15:12;8.70;99.90
16267;DHT22;8241;48.786;9.250;2023-02-03T14:18:00;8.70;99.90
16267;DHT22;8241;48.786;9.250;2023-02-03T14:24:29;8.70;99.90
16267;DHT22;8241;48.786;9.250;2023-02-03T14:31:11;8.60;99.90
16267;DHT22;8241;48.786;9.250;2023-02-03T14:34:11;8.60;99.90
16267;DHT22;8241;48.786;9.250;2023-02-03T14:37:01;8.60;99.90
16267;DHT22;8241;48.786;9.250;2023-02-03T14:40:13;8.70;99.90
16267;DHT22;8241;48.786;9.250;2023-02-03T14:43:47;8.70;99.90
16267;DHT22;8241;48.786;9.250;2023-02-03T14:53:09;8.70;99.90
16267;DHT22;8241;48.786;9.250;2023-02-03T14:58:48;8.70;99.90
16267;DHT22;8241;48.786;9.250;2023-02-03T15:02:11;8.70;99.90
16267;DHT22;8241;48.786;9.250;2023-02-03T15:09:04;8.60;99.90
16267;DHT22;8241;48.786;9.250;2023-02-03T15:18:49;8.70;99.90
16267;DHT22;8241;48.786;9.250;2023-02-03T15:22:16;8.70;99.90
16267;DHT22;8241;48.786;9.250;2023-02-03T15:25:00;8.60;99.90
16267;DHT22;8241;48.786;9.250;2023-02-03T15:27:51;8.60;99.90
16267;DHT22;8241;48.786;9.250;2023-02-03T15:30:29;8.60;99.90
16267;DHT22;8241;48.786;9.250;2023-02-03T15:33:07;8.60;99.90
16267;DHT22;8241;48.786;9.250;2023-02-03T15:35:45;8.60;99.90
16267;DHT22;8241;48.786;9.250;2023-02-03T15:38:28;8.60;99.90
16267;DHT22;8241;48.786;9.250;2023-02-03T15:40:58;8.60;99.90
16267;DHT22;8241;48.786;9.250;2023-02-03T15:43:30;8.50;99.90
16267;DHT22;8241;48.786;9.250;2023-02-03T15:46:08;8.50;99.90
16267;DHT22;8241;48.786;9.250;2023-02-03T15:48:53;8.50;99.90
16267;DHT22;8241;48.786;9.250;2023-02-03T15:51:26;8.50;99.90
16267;DHT22;8241;48.786;9.250;2023-02-03T15:54:27;8.50;99.90
16267;DHT22;8241;48.786;9.250;2023-02-03T15:57:20;8.40;99.90
16267;DHT22;8241;48.786;9.250;2023-02-03T15:59:55;8.40;99.90
16267;DHT22;8241;48.786;9.250;2023-02-03T16:02:27;8.40;99.90
16267;DHT22;8241;48.786;9.250;2023-02-03T16:04:57;8.50;99.90
16267;DHT22;8241;48.786;9.250;2023-02-03T16:17:27;8.50;99.90
16267;DHT22;8241;48.786;9.250;2023-02-03T16:20:22;8.50;99.90
16267;DHT22;8241;48.786;9.250;2023-02-03T16:23:20;8.50;99.90
16267;DHT22;8241;48.786;9.250;2023-02-03T16:26:18;8.50;99.90
16267;DHT22;8241;48.786;9.250;2023-02-03T16:29:16;8.40;99.90
16267;DHT22;8241;48.786;9.250;2023-02-03T16:32:36;8.50;99.90
16267;DHT22;8241;48.786;9.250;2023-02-03T16:36:42;8.40;99.90
16267;DHT22;8241;48.786;9.250;2023-02-03T16:39:22;8.40;99.90
16267;DHT22;8241;48.786;9.250;2023-02-03T16:42:13;8.30;99.90
16267;DHT22;8241;48.786;9.250;2023-02-03T16:44:58;8.40;99.90
16267;DHT22;8241;48.786;9.250;2023-02-03T16:47:50;8.30;99.90
16267;DHT22;8241;48.786;9.250;2023-02-03T16:54:54;8.30;99.90
16267;DHT22;8241;48.786;9.250;2023-02-03T16:57:21;8.30;99.90
16267;DHT22;8241;48.786;9.250;2023-02-03T16:59:48;8.30;99.90
16267;DHT22;8241;48.786;9.250;2023-02-03T17:05:37;8.30;99.90
16267;DHT22;8241;48.786;9.250;2023-02-03T17:08:05;8.40;99.90
16267;DHT22;8241;48.786;9.250;2023-02-03T17:10:35;8.40;99.90
16267;DHT22;8241;48.786;9.250;2023-02-03T17:13:03;8.30;99.90
16267;DHT22;8241;48.786;9.250;2023-02-03T17:18:28;8.40;99.90
16267;DHT22;8241;48.786;9.250;2023-02-03T17:21:03;8.30;99.90
16267;DHT22;8241;48.786;9.250;2023-02-03T17:23:33;8.30;99.90
16267;DHT22;8241;48.786;9.250;2023-02-03T17:26:03;8.30;99.90
16267;DHT22;8241;48.786;9.250;2023-02-03T17:28:31;8.30;99.90
16267;DHT22;8241;48.786;9.250;2023-02-03T17:31:02;8.40;99.90
16267;DHT22;8241;48.786;9.250;2023-02-03T17:33:31;8.40;99.90
16267;DHT22;8241;48.786;9.250;2023-02-03T17:36:02;8.40;99.90
16267;DHT22;8241;48.786;9.250;2023-02-03T17:38:29;8.50;99.90
16267;DHT22;8241;48.786;9.250;2023-02-03T17:40:56;8.40;99.90
16267;DHT22;8241;48.786;9.250;2023-02-03T17:43:23;8.50;99.90
16267;DHT22;8241;48.786;9.250;2023-02-03T17:49:37;8.50;99.90
16267;DHT22;8241;48.786;9.250;2023-02-03T17:52:06;8.40;99.90
16267;DHT22;8241;48.786;9.250;2023-02-03T17:54:39;8.40;99.90
16267;DHT22;8241;48.786;9.250;2023-02-03T17:57:15;8.50;99.90
16267;DHT22;8241;48.786;9.250;2023-02-03T17:59:43;8.50;99.90
16267;DHT22;8241;48.786;9.250;2023-02-03T18:10:15;8.50;99.90
16267;DHT22;8241;48.786;9.250;2023-02-03T18:16:30;8.60;99.90
16267;DHT22;8241;48.786;9.250;2023-02-03T18:22:55;8.60;99.90
16267;DHT22;8241;48.786;9.250;2023-02-03T18:29:20;8.60;99.90
16267;DHT22;8241;48.786;9.250;2023-02-03T18:31:49;8.60;99.90
16267;DHT22;8241;48.786;9.250;2023-02-03T18:41:22;8.60;99.90
16267;DHT22;8241;48.786;9.250;2023-02-03T18:43:55;8.60;99.90
16267;DHT22;8241;48.786;9.250;2023-02-03T18:46:30;8.60;99.90
16267;DHT22;8241;48.786;9.250;2023-02-03T18:49:36;8.60;99.90
16267;DHT22;8241;48.786;9.250;2023-02-03T18:52:11;8.60;99.90
16267;DHT22;8241;48.786;9.250;2023-02-03T18:54:53;8.60;99.90
16267;DHT22;8241;48.786;9.250;2023-02-03T18:57:25;8.60;99.90
16267;DHT22;8241;48.786;9.250;2023-02-03T18:59:52;8.60;99.90
16267;DHT22;8241;48.786;9.250;2023-02-03T19:02:38;8.60;99.90
16267;DHT22;8241;48.786;9.250;2023-02-03T19:05:39;8.60;99.90
16267;DHT22;8241;48.786;9.250;2023-02-03T19:08:49;8.50;99.90
16267;DHT22;8241;48.786;9.250;2023-02-03T19:12:07;8.60;99.90
16267;DHT22;8241;48.786;9.250;2023-02-03T19:14:37;8.50;99.90
16267;DHT22;8241;48.786;9.250;2023-02-03T19:17:19;8.60;99.90
16267;DHT22;8241;48.786;9.250;2023-02-03T19:20:20;8.60;99.90
16267;DHT22;8241;48.786;9.250;2023-02-03T19:22:52;8.60;99.90
16267;DHT22;8241;48.786;9.250;2023-02-03T19:25:28;8.60;99.90
16267;DHT22;8241;48.786;9.250;2023-02-03T19:27:55;8.50;99.90
16267;DHT22;8241;48.786;9.250;2023-02-03T19:30:22;8.50;99.90
16267;DHT22;8241;48.786;9.250;2023-02-03T19:32:49;8.50;99.90
16267;DHT22;8241;48.786;9.250;2023-02-03T19:35:17;8.60;99.90
16267;DHT22;8241;48.786;9.250;2023-02-03T19:37:54;8.50;99.90
16267;DHT22;8241;48.786;9.250;2023-02-03T19:40:22;8.50;99.90
16267;DHT22;8241;48.786;9.250;2023-02-03T19:42:50;8.50;99.90
16267;DHT22;8241;48.786;9.250;2023-02-03T19:45:20;8.60;99.90
16267;DHT22;8241;48.786;9.250;2023-02-03T19:48:19;8.60;99.90
16267;DHT22;8241;48.786;9.250;2023-02-03T19:50:53;8.60;99.90
16267;DHT22;8241;48.786;9.250;2023-02-03T19:53:27;8.60;99.90
16267;DHT22;8241;48.786;9.250;2023-02-03T19:55:57;8.70;99.90
16267;DHT22;8241;48.786;9.250;2023-02-03T19:58:55;8.60;99.90
16267;DHT22;8241;48.786;9.250;2023-02-03T20:05:09;8.60;99.90
16267;DHT22;8241;48.786;9.250;2023-02-03T20:10:54;8.60;99.90
16267;DHT22;8241;48.786;9.250;2023-02-03T20:14:00;8.60;99.90
16267;DHT22;8241;48.786;9.250;2023-02-03T20:16:35;8.70;99.90
16267;DHT22;8241;48.786;9.250;2023-02-03T20:19:02;8.60;99.90
16267;DHT22;8241;48.786;9.250;2023-02-03T20:21:48;8.60;99.90
16267;DHT22;8241;48.786;9.250;2023-02-03T20:24:15;8.60;99.90
16267;DHT22;8241;48.786;9.250;2023-02-03T20:26:44;8.60;99.90
16267;DHT22;8241;48.786;9.250;2023-02-03T20:29:14;8.60;99.90
16267;DHT22;8241;48.786;9.250;2023-02-03T20:35:06;8.50;99.90
16267;DHT22;8241;48.786;9.250;2023-02-03T20:38:11;8.60;99.90
16267;DHT22;8241;48.786;9.250;2023-02-03T20:40:40;8.60;99.90
16267;DHT22;8241;48.786;9.250;2023-02-03T20:43:15;8.60;99.90
16267;DHT22;8241;48.786;9.250;2023-02-03T20:45:43;8.60;99.90
16267;DHT22;8241;48.786;9.250;2023-02-03T20:48:24;8.70;99.90
16267;DHT22;8241;48.786;9.250;2023-02-03T20:54:20;8.60;99.90
16267;DHT22;8241;48.786;9.250;2023-02-03T21:00:09;8.60;99.90
16267;DHT22;8241;48.786;9.250;2023-02-03T21:02:45;8.70;99.90
16267;DHT22;8241;48.786;9.250;2023-02-03T21:06:01;8.70;99.90
16267;DHT22;8241;48.786;9.250;2023-02-03T21:08:47;8.70;99.90
16267;DHT22;8241;48.786;9.250;2023-02-03T21:11:17;8.70;99.90
16267;DHT22;8241;48.786;9.250;2023-02-03T21:13:59;8.70;99.90
16267;DHT22;8241;48.786;9.250;2023-02-03T21:16:56;8.70;99.90
16267;DHT22;8241;48.786;9.250;2023-02-03T21:19:33;8.70;99.90
16267;DHT22;8241;48.786;9.250;2023-02-03T21:22:12;8.70;99.90
16267;DHT22;8241;48.786;9.250;2023-02-03T21:25:22;8.70;99.90
16267;DHT22;8241;48.786;9.250;2023-02-03T21:27:59;8.70;99.90
16267;DHT22;8241;48.786;9.250;2023-02-03T21:30:53;8.70;99.90
16267;DHT22;8241;48.786;9.250;2023-02-03T21:33:36;8.70;99.90
16267;DHT22;8241;48.786;9.250;2023-02-03T21:36:21;8.70;99.90
16267;DHT22;8241;48.786;9.250;2023-02-03T21:38:54;8.70;99.90
16267;DHT22;8241;48.786;9.250;2023-02-03T21:41:59;8.80;99.90
16267;DHT22;8241;48.786;9.250;2023-02-03T21:45:19;8.70;99.90
16267;DHT22;8241;48.786;9.250;2023-02-03T21:52:48;8.70;99.90
16267;DHT22;8241;48.786;9.250;2023-02-03T21:59:53;8.80;99.90
16267;DHT22;8241;48.786;9.250;2023-02-03T22:02:53;8.70;99.90
16267;DHT22;8241;48.786;9.250;2023-02-03T22:21:11;8.70;99.90
16267;DHT22;8241;48.786;9.250;2023-02-03T22:28:30;8.70;99.90
16267;DHT22;8241;48.786;9.250;2023-02-03T22:32:23;8.70;99.90
16267;DHT22;8241;48.786;9.250;2023-02-03T22:35:10;8.70;99.90
